createdAt,value
2019-06-15T00:00:22.560Z,0
2019-06-15T00:01:22.765Z,0
2019-06-15T00:02:22.566Z,0
2019-06-15T00:03:22.760Z,0
2019-06-15T00:04:22.757Z,0
2019-06-15T00:05:23.024Z,0
2019-06-15T00:06:22.527Z,0
2019-06-15T00:07:22.768Z,0
2019-06-15T00:08:22.769Z,0
2019-06-15T00:09:22.775Z,0
2019-06-15T00:10:22.327Z,0
2019-06-15T00:11:22.538Z,0
2019-06-15T00:12:22.293Z,0
2019-06-15T00:13:22.539Z,0
2019-06-15T00:14:22.281Z,0
2019-06-15T00:15:22.542Z,0
2019-06-15T00:16:22.831Z,0
2019-06-15T00:17:22.785Z,0
2019-06-15T00:18:22.549Z,0
2019-06-15T00:19:22.810Z,0
2019-06-15T00:20:22.543Z,0
2019-06-15T00:21:22.791Z,0
2019-06-15T00:22:22.796Z,0
2019-06-15T00:23:22.564Z,0
2019-06-15T00:24:37.023Z,0
2019-06-15T00:25:22.785Z,0
2019-06-15T00:26:22.785Z,0
2019-06-15T00:27:22.285Z,0
2019-06-15T00:28:22.694Z,0
2019-06-15T00:29:22.554Z,0
2019-06-15T00:30:23.142Z,0
2019-06-15T00:31:23.032Z,0
2019-06-15T00:32:23.049Z,0
2019-06-15T00:33:23.071Z,0
2019-06-15T00:34:22.861Z,0
2019-06-15T00:35:23.087Z,0
2019-06-15T00:36:22.816Z,0
2019-06-15T00:37:22.817Z,0
2019-06-15T00:38:22.325Z,0
2019-06-15T00:39:22.575Z,0
2019-06-15T00:40:22.586Z,0
2019-06-15T00:41:22.559Z,0
2019-06-15T00:42:22.812Z,0
2019-06-15T00:43:23.151Z,0
2019-06-15T00:44:22.571Z,0
2019-06-15T00:45:23.097Z,0
2019-06-15T00:46:22.806Z,0
2019-06-15T00:47:22.821Z,0
2019-06-15T00:48:22.332Z,0
2019-06-15T00:49:23.207Z,0
2019-06-15T00:50:22.836Z,0
2019-06-15T00:51:22.825Z,0
2019-06-15T00:52:22.822Z,0
2019-06-15T00:53:22.887Z,0
2019-06-15T00:54:22.863Z,0
2019-06-15T00:55:23.074Z,0
2019-06-15T00:56:22.631Z,0
2019-06-15T00:57:22.335Z,0
2019-06-15T00:58:23.084Z,0
2019-06-15T00:59:23.066Z,0
2019-06-15T01:00:22.858Z,0
2019-06-15T01:01:22.836Z,0
2019-06-15T01:02:22.841Z,0
2019-06-15T01:03:22.334Z,0
2019-06-15T01:04:22.833Z,0
2019-06-15T01:05:23.073Z,0
2019-06-15T01:06:22.845Z,0
2019-06-15T01:07:22.868Z,0
2019-06-15T01:08:22.331Z,0
2019-06-15T01:09:22.575Z,0
2019-06-15T01:10:22.845Z,0
2019-06-15T01:11:22.325Z,0
2019-06-15T01:12:22.834Z,0
2019-06-15T01:13:22.341Z,0
2019-06-15T01:14:22.613Z,0
2019-06-15T01:15:22.611Z,0
2019-06-15T01:16:22.859Z,0
2019-06-15T01:17:22.631Z,0
2019-06-15T01:18:22.851Z,0
2019-06-15T01:19:23.136Z,0
2019-06-15T01:20:22.892Z,0
2019-06-15T01:21:22.854Z,0
2019-06-15T01:22:23.106Z,0
2019-06-15T01:23:22.631Z,0
2019-06-15T01:24:22.347Z,0
2019-06-15T01:25:22.367Z,0
2019-06-15T01:26:22.604Z,0
2019-06-15T01:27:23.128Z,0
2019-06-15T01:28:22.841Z,0
2019-06-15T01:29:23.102Z,0
2019-06-15T01:30:22.849Z,0
2019-06-15T01:31:22.848Z,0
2019-06-15T01:32:22.857Z,0
2019-06-15T01:33:23.088Z,0
2019-06-15T01:34:22.847Z,0
2019-06-15T01:35:22.615Z,0
2019-06-15T01:36:23.102Z,0
2019-06-15T01:37:22.854Z,0
2019-06-15T01:38:22.639Z,0
2019-06-15T01:39:22.616Z,0
2019-06-15T01:40:23.109Z,0
2019-06-15T01:41:22.848Z,0
2019-06-15T01:42:22.607Z,0
2019-06-15T01:43:22.600Z,0
2019-06-15T01:44:22.613Z,0
2019-06-15T01:45:22.858Z,0
2019-06-15T01:46:22.857Z,0
2019-06-15T01:47:22.610Z,0
2019-06-15T01:48:22.601Z,0
2019-06-15T01:49:23.086Z,0
2019-06-15T01:50:22.870Z,0
2019-06-15T01:51:22.857Z,0
2019-06-15T01:52:22.878Z,0
2019-06-15T01:53:22.619Z,0
2019-06-15T01:54:22.596Z,0
2019-06-15T01:55:28.163Z,0
2019-06-15T01:56:22.855Z,0
2019-06-15T01:57:22.856Z,0
2019-06-15T01:58:22.605Z,0
2019-06-15T01:59:22.653Z,0
2019-06-15T02:00:22.860Z,0
2019-06-15T02:01:22.631Z,0
2019-06-15T02:02:23.222Z,0
2019-06-15T02:03:22.604Z,0
2019-06-15T02:04:22.595Z,0
2019-06-15T02:05:23.117Z,0
2019-06-15T02:06:22.870Z,0
2019-06-15T02:07:23.096Z,0
2019-06-15T02:08:22.849Z,0
2019-06-15T02:09:22.604Z,0
2019-06-15T02:10:22.410Z,0
2019-06-15T02:11:22.881Z,0
2019-06-15T02:12:22.926Z,0
2019-06-15T02:13:22.953Z,0
2019-06-15T02:14:22.875Z,0
2019-06-15T02:15:23.119Z,0
2019-06-15T02:16:23.134Z,0
2019-06-15T02:17:23.133Z,0
2019-06-15T02:18:22.602Z,0
2019-06-15T02:19:22.855Z,0
2019-06-15T02:20:22.638Z,0
2019-06-15T02:21:23.134Z,0
2019-06-15T02:22:22.882Z,0
2019-06-15T02:23:22.345Z,0
2019-06-15T02:24:23.195Z,0
2019-06-15T02:25:37.016Z,0
2019-06-15T02:26:23.137Z,0
2019-06-15T02:27:22.607Z,0
2019-06-15T02:28:22.857Z,0
2019-06-15T02:29:23.092Z,0
2019-06-15T02:30:22.895Z,0
2019-06-15T02:31:23.125Z,0
2019-06-15T02:32:22.879Z,0
2019-06-15T02:33:22.898Z,0
2019-06-15T02:34:22.850Z,0
2019-06-15T02:35:22.867Z,0
2019-06-15T02:36:23.126Z,0
2019-06-15T02:37:22.896Z,0
2019-06-15T02:38:22.630Z,0
2019-06-15T02:39:22.619Z,4
2019-06-15T02:40:23.106Z,4
2019-06-15T02:41:23.105Z,4
2019-06-15T02:42:22.865Z,0
2019-06-15T02:43:22.633Z,4
2019-06-15T02:44:23.117Z,4
2019-06-15T02:45:23.127Z,4
2019-06-15T02:46:25.180Z,4
2019-06-15T02:47:22.869Z,4
2019-06-15T02:48:23.109Z,4
2019-06-15T02:49:22.613Z,8
2019-06-15T02:50:22.877Z,8
2019-06-15T02:51:23.255Z,8
2019-06-15T02:52:22.869Z,8
2019-06-15T02:53:22.613Z,12
2019-06-15T02:54:22.619Z,12
2019-06-15T02:55:22.620Z,12
2019-06-15T02:56:22.615Z,16
2019-06-15T02:57:22.858Z,16
2019-06-15T02:58:22.364Z,20
2019-06-15T02:59:22.624Z,20
2019-06-15T03:00:23.103Z,28
2019-06-15T03:01:22.872Z,28
2019-06-15T03:02:22.846Z,32
2019-06-15T03:03:22.352Z,36
2019-06-15T03:04:23.137Z,40
2019-06-15T03:05:22.600Z,48
2019-06-15T03:06:22.601Z,48
2019-06-15T03:07:23.095Z,56
2019-06-15T03:08:23.093Z,60
2019-06-15T03:09:22.663Z,68
2019-06-15T03:10:23.099Z,76
2019-06-15T03:11:22.850Z,84
2019-06-15T03:12:22.866Z,92
2019-06-15T03:13:22.351Z,104
2019-06-15T03:14:23.097Z,116
2019-06-15T03:15:22.859Z,128
2019-06-15T03:16:22.867Z,136
2019-06-15T03:17:23.099Z,148
2019-06-15T03:18:23.092Z,160
2019-06-15T03:19:23.097Z,172
2019-06-15T03:20:22.880Z,188
2019-06-15T03:21:23.117Z,200
2019-06-15T03:22:22.628Z,212
2019-06-15T03:23:22.851Z,228
2019-06-15T03:24:23.116Z,244
2019-06-15T03:25:22.910Z,260
2019-06-15T03:26:23.123Z,276
2019-06-15T03:27:22.858Z,292
2019-06-15T03:28:22.362Z,312
2019-06-15T03:29:23.092Z,328
2019-06-15T03:30:23.156Z,348
2019-06-15T03:31:22.862Z,364
2019-06-15T03:32:22.890Z,384
2019-06-15T03:33:22.604Z,404
2019-06-15T03:34:22.596Z,424
2019-06-15T03:35:22.854Z,448
2019-06-15T03:36:23.096Z,464
2019-06-15T03:37:22.869Z,492
2019-06-15T03:38:22.361Z,516
2019-06-15T03:39:22.874Z,540
2019-06-15T03:40:22.873Z,564
2019-06-15T03:41:22.864Z,588
2019-06-15T03:42:22.612Z,620
2019-06-15T03:43:22.856Z,656
2019-06-15T03:44:22.837Z,700
2019-06-15T03:45:22.619Z,744
2019-06-15T03:46:23.102Z,800
2019-06-15T03:47:22.868Z,856
2019-06-15T03:48:22.361Z,920
2019-06-15T03:49:23.112Z,988
2019-06-15T03:50:22.604Z,1056
2019-06-15T03:51:22.833Z,1128
2019-06-15T03:52:22.595Z,1204
2019-06-15T03:53:22.626Z,1288
2019-06-15T03:54:22.641Z,1368
2019-06-15T03:55:23.100Z,1456
2019-06-15T03:56:28.553Z,1552
2019-06-15T03:57:23.087Z,1636
2019-06-15T03:58:23.083Z,1732
2019-06-15T03:59:23.096Z,1852
2019-06-15T04:00:23.102Z,2048
2019-06-15T04:01:23.120Z,2232
2019-06-15T04:02:22.606Z,2480
2019-06-15T04:03:22.599Z,2652
2019-06-15T04:04:22.842Z,2776
2019-06-15T04:05:23.135Z,2896
2019-06-15T04:06:23.122Z,2984
2019-06-15T04:07:22.842Z,3096
2019-06-15T04:08:22.358Z,3216
2019-06-15T04:09:22.848Z,3352
2019-06-15T04:10:22.618Z,3468
2019-06-15T04:11:22.846Z,3612
2019-06-15T04:12:22.605Z,3748
2019-06-15T04:13:22.359Z,3880
2019-06-15T04:14:22.842Z,4004
2019-06-15T04:15:23.150Z,4052
2019-06-15T04:16:22.851Z,4136
2019-06-15T04:17:22.601Z,4280
2019-06-15T04:18:22.859Z,4536
2019-06-15T04:19:22.619Z,4696
2019-06-15T04:20:23.110Z,4820
2019-06-15T04:21:22.921Z,4976
2019-06-15T04:22:22.656Z,5080
2019-06-15T04:23:23.933Z,5148
2019-06-15T04:24:22.885Z,4284
2019-06-15T04:25:23.167Z,4524
2019-06-15T04:26:37.656Z,4584
2019-06-15T04:27:23.115Z,4760
2019-06-15T04:28:22.871Z,4796
2019-06-15T04:29:22.620Z,4904
2019-06-15T04:30:23.130Z,4904
2019-06-15T04:31:22.864Z,4144
2019-06-15T04:32:23.138Z,4364
2019-06-15T04:33:23.129Z,4436
2019-06-15T04:34:23.156Z,4388
2019-06-15T04:35:22.713Z,4360
2019-06-15T04:36:23.129Z,4144
2019-06-15T04:37:22.921Z,3948
2019-06-15T04:38:22.893Z,3996
2019-06-15T04:39:22.902Z,4120
2019-06-15T04:40:22.677Z,4352
2019-06-15T04:41:22.891Z,4248
2019-06-15T04:42:22.910Z,5428
2019-06-15T04:43:22.931Z,4040
2019-06-15T04:44:23.161Z,3696
2019-06-15T04:45:22.671Z,3672
2019-06-15T04:46:23.199Z,4260
2019-06-15T04:47:22.429Z,3860
2019-06-15T04:48:22.916Z,4132
2019-06-15T04:49:23.151Z,3844
2019-06-15T04:50:23.173Z,3924
2019-06-15T04:51:23.147Z,3696
2019-06-15T04:52:22.906Z,3656
2019-06-15T04:53:22.660Z,3760
2019-06-15T04:54:22.654Z,3648
2019-06-15T04:55:22.921Z,4456
2019-06-15T04:56:23.188Z,4412
2019-06-15T04:57:22.656Z,3952
2019-06-15T04:58:22.476Z,3492
2019-06-15T04:59:22.765Z,4068
2019-06-15T05:00:23.003Z,3936
2019-06-15T05:01:22.944Z,3780
2019-06-15T05:02:23.284Z,3752
2019-06-15T05:03:22.996Z,3940
2019-06-15T05:04:23.240Z,3744
2019-06-15T05:05:22.690Z,3848
2019-06-15T05:06:22.947Z,4156
2019-06-15T05:07:23.188Z,6148
2019-06-15T05:08:22.941Z,8356
2019-06-15T05:09:23.255Z,9712
2019-06-15T05:10:22.466Z,9904
2019-06-15T05:11:22.947Z,9736
2019-06-15T05:12:22.936Z,9780
2019-06-15T05:13:22.700Z,9108
2019-06-15T05:14:22.694Z,8728
2019-06-15T05:15:22.959Z,8388
2019-06-15T05:16:22.963Z,7076
2019-06-15T05:17:23.264Z,6416
2019-06-15T05:18:22.981Z,6208
2019-06-15T05:19:22.572Z,4992
2019-06-15T05:20:23.262Z,5840
2019-06-15T05:21:23.306Z,5912
2019-06-15T05:22:23.286Z,6100
2019-06-15T05:23:22.741Z,6616
2019-06-15T05:24:23.331Z,7896
2019-06-15T05:25:23.031Z,8876
2019-06-15T05:26:23.257Z,8404
2019-06-15T05:27:22.509Z,7724
2019-06-15T05:28:22.522Z,6932
2019-06-15T05:29:22.831Z,8484
2019-06-15T05:30:23.290Z,5584
2019-06-15T05:31:23.268Z,6096
2019-06-15T05:32:23.014Z,5072
2019-06-15T05:33:24.073Z,5660
2019-06-15T05:34:23.090Z,7468
2019-06-15T05:35:26.064Z,6396
2019-06-15T05:36:23.043Z,9428
2019-06-15T05:37:23.115Z,9936
2019-06-15T05:38:22.840Z,9840
2019-06-15T05:39:23.058Z,11408
2019-06-15T05:40:23.089Z,12556
2019-06-15T05:41:23.358Z,12888
2019-06-15T05:42:23.355Z,10172
2019-06-15T05:43:23.061Z,12584
2019-06-15T05:44:23.336Z,12632
2019-06-15T05:45:23.137Z,12820
2019-06-15T05:46:23.112Z,12992
2019-06-15T05:47:23.143Z,13588
2019-06-15T05:48:23.161Z,14352
2019-06-15T05:49:23.391Z,14336
2019-06-15T05:50:23.424Z,14412
2019-06-15T05:51:23.112Z,12928
2019-06-15T05:52:23.181Z,7292
2019-06-15T05:53:25.316Z,8860
2019-06-15T05:54:23.359Z,7604
2019-06-15T05:55:23.387Z,12440
2019-06-15T05:56:23.401Z,12584
2019-06-15T05:57:28.450Z,14312
2019-06-15T05:58:23.409Z,15024
2019-06-15T05:59:22.641Z,14856
2019-06-15T06:00:23.427Z,15024
2019-06-15T06:01:22.673Z,15100
2019-06-15T06:02:28.618Z,15112
2019-06-15T06:03:23.412Z,14920
2019-06-15T06:04:23.183Z,14624
2019-06-15T06:05:23.447Z,14872
2019-06-15T06:06:22.692Z,15168
2019-06-15T06:07:23.211Z,15184
2019-06-15T06:08:23.207Z,15096
2019-06-15T06:09:23.262Z,15144
2019-06-15T06:10:23.251Z,14932
2019-06-15T06:11:23.314Z,14868
2019-06-15T06:12:22.975Z,15004
2019-06-15T06:13:23.495Z,14684
2019-06-15T06:14:23.250Z,14368
2019-06-15T06:15:26.633Z,14132
2019-06-15T06:16:23.593Z,13908
2019-06-15T06:17:23.509Z,14152
2019-06-15T06:18:23.295Z,14332
2019-06-15T06:19:23.544Z,14608
2019-06-15T06:20:23.047Z,14500
2019-06-15T06:21:23.578Z,14684
2019-06-15T06:22:23.550Z,14452
2019-06-15T06:23:23.081Z,14556
2019-06-15T06:24:23.107Z,13264
2019-06-15T06:25:23.611Z,13476
2019-06-15T06:26:23.351Z,15364
2019-06-15T06:27:38.235Z,15904
2019-06-15T06:28:22.847Z,15604
2019-06-15T06:29:24.172Z,15092
2019-06-15T06:30:23.628Z,15216
2019-06-15T06:31:23.658Z,15628
2019-06-15T06:32:23.656Z,16288
2019-06-15T06:33:23.416Z,8272
2019-06-15T06:34:23.216Z,9560
2019-06-15T06:35:23.438Z,11788
2019-06-15T06:36:23.086Z,15292
2019-06-15T06:37:23.660Z,12036
2019-06-15T06:38:23.491Z,11260
2019-06-15T06:39:23.202Z,9852
2019-06-15T06:40:23.491Z,8712
2019-06-15T06:41:23.464Z,9216
2019-06-15T06:42:23.202Z,9196
2019-06-15T06:43:23.588Z,8732
2019-06-15T06:44:23.483Z,7972
2019-06-15T06:45:23.717Z,7648
2019-06-15T06:46:23.235Z,7676
2019-06-15T06:47:23.488Z,7808
2019-06-15T06:48:23.242Z,8408
2019-06-15T06:49:23.763Z,8600
2019-06-15T06:50:23.258Z,7544
2019-06-15T06:51:23.515Z,8520
2019-06-15T06:52:23.764Z,8348
2019-06-15T06:53:23.776Z,8588
2019-06-15T06:54:23.814Z,8624
2019-06-15T06:55:23.530Z,8484
2019-06-15T06:56:23.771Z,11436
2019-06-15T06:57:23.561Z,9832
2019-06-15T06:58:23.329Z,7352
2019-06-15T06:59:24.112Z,6964
2019-06-15T07:00:23.565Z,7040
2019-06-15T07:01:23.801Z,6920
2019-06-15T07:02:23.072Z,7136
2019-06-15T07:03:23.318Z,7640
2019-06-15T07:04:23.818Z,8308
2019-06-15T07:05:23.569Z,8352
2019-06-15T07:06:23.848Z,7920
2019-06-15T07:07:23.587Z,7864
2019-06-15T07:08:23.377Z,12080
2019-06-15T07:09:23.377Z,7860
2019-06-15T07:10:23.369Z,8616
2019-06-15T07:11:23.437Z,12472
2019-06-15T07:12:23.642Z,18528
2019-06-15T07:13:23.416Z,17600
2019-06-15T07:14:23.636Z,11992
2019-06-15T07:15:23.888Z,10416
2019-06-15T07:16:23.401Z,9776
2019-06-15T07:17:23.875Z,9560
2019-06-15T07:18:23.671Z,9464
2019-06-15T07:19:23.898Z,13368
2019-06-15T07:20:23.934Z,9200
2019-06-15T07:21:23.425Z,9264
2019-06-15T07:22:23.908Z,9260
2019-06-15T07:23:23.686Z,17248
2019-06-15T07:24:23.910Z,8012
2019-06-15T07:25:23.687Z,7664
2019-06-15T07:26:23.422Z,9192
2019-06-15T07:27:23.683Z,7512
2019-06-15T07:28:23.824Z,7512
2019-06-15T07:29:23.462Z,7460
2019-06-15T07:30:23.480Z,7144
2019-06-15T07:31:23.738Z,7444
2019-06-15T07:32:24.012Z,8080
2019-06-15T07:33:23.754Z,9284
2019-06-15T07:34:24.010Z,9600
2019-06-15T07:35:24.000Z,17440
2019-06-15T07:36:24.004Z,12624
2019-06-15T07:37:23.735Z,11144
2019-06-15T07:38:23.741Z,10380
2019-06-15T07:39:23.751Z,10216
2019-06-15T07:40:23.752Z,10040
2019-06-15T07:41:23.761Z,10184
2019-06-15T07:42:24.018Z,18976
2019-06-15T07:43:23.752Z,20288
2019-06-15T07:44:24.007Z,12680
2019-06-15T07:45:24.017Z,13276
2019-06-15T07:46:24.067Z,13584
2019-06-15T07:47:23.818Z,14180
2019-06-15T07:48:23.541Z,12272
2019-06-15T07:49:24.032Z,9628
2019-06-15T07:50:23.535Z,10152
2019-06-15T07:51:24.067Z,11720
2019-06-15T07:52:23.810Z,11856
2019-06-15T07:53:23.582Z,20160
2019-06-15T07:54:23.888Z,22272
2019-06-15T07:55:23.836Z,18624
2019-06-15T07:56:24.079Z,22400
2019-06-15T07:57:23.591Z,21312
2019-06-15T07:58:31.300Z,11760
2019-06-15T07:59:24.129Z,11476
2019-06-15T08:00:23.863Z,11696
2019-06-15T08:01:23.593Z,11384
2019-06-15T08:02:23.612Z,11312
2019-06-15T08:03:23.873Z,11772
2019-06-15T08:04:24.112Z,16672
2019-06-15T08:05:23.866Z,12064
2019-06-15T08:06:23.870Z,17376
2019-06-15T08:07:23.386Z,19264
2019-06-15T08:08:23.940Z,19008
2019-06-15T08:09:23.899Z,16960
2019-06-15T08:10:23.907Z,14664
2019-06-15T08:11:23.920Z,10692
2019-06-15T08:12:24.233Z,10048
2019-06-15T08:13:23.726Z,9788
2019-06-15T08:14:24.209Z,10560
2019-06-15T08:15:23.706Z,11148
2019-06-15T08:16:23.945Z,10892
2019-06-15T08:17:23.946Z,10144
2019-06-15T08:18:23.964Z,9704
2019-06-15T08:19:24.006Z,9176
2019-06-15T08:20:23.953Z,9224
2019-06-15T08:21:23.982Z,11024
2019-06-15T08:22:24.227Z,10960
2019-06-15T08:23:24.239Z,11484
2019-06-15T08:24:23.756Z,10660
2019-06-15T08:25:24.148Z,13632
2019-06-15T08:26:24.055Z,17344
2019-06-15T08:27:24.025Z,16992
2019-06-15T08:28:37.011Z,16288
2019-06-15T08:29:24.359Z,16064
2019-06-15T08:30:24.022Z,17024
2019-06-15T08:31:24.028Z,16992
2019-06-15T08:32:24.061Z,16448
2019-06-15T08:33:23.566Z,16960
2019-06-15T08:34:24.297Z,16352
2019-06-15T08:35:24.060Z,16736
2019-06-15T08:36:24.350Z,15616
2019-06-15T08:37:24.338Z,11896
2019-06-15T08:38:23.834Z,13488
2019-06-15T08:39:23.588Z,11244
2019-06-15T08:40:24.121Z,15012
2019-06-15T08:41:24.396Z,11896
2019-06-15T08:42:24.102Z,11412
2019-06-15T08:43:23.870Z,15840
2019-06-15T08:44:24.356Z,14556
2019-06-15T08:45:24.169Z,11048
2019-06-15T08:46:24.411Z,10828
2019-06-15T08:47:24.400Z,10164
2019-06-15T08:48:24.157Z,10040
2019-06-15T08:49:24.265Z,10128
2019-06-15T08:50:23.920Z,10636
2019-06-15T08:51:24.202Z,11004
2019-06-15T08:52:23.915Z,12192
2019-06-15T08:53:23.960Z,12016
2019-06-15T08:54:24.271Z,15872
2019-06-15T08:55:24.467Z,15300
2019-06-15T08:56:24.472Z,14736
2019-06-15T08:57:24.590Z,12460
2019-06-15T08:58:24.251Z,13204
2019-06-15T08:59:23.998Z,11240
2019-06-15T09:00:24.020Z,14016
2019-06-15T09:01:24.250Z,14916
2019-06-15T09:02:24.305Z,11804
2019-06-15T09:03:24.500Z,11168
2019-06-15T09:04:24.509Z,10704
2019-06-15T09:05:24.550Z,10188
2019-06-15T09:06:23.997Z,9968
2019-06-15T09:07:24.278Z,10128
2019-06-15T09:08:24.277Z,11052
2019-06-15T09:09:24.284Z,10928
2019-06-15T09:10:24.613Z,13856
2019-06-15T09:11:24.561Z,14272
2019-06-15T09:12:27.371Z,15508
2019-06-15T09:13:24.085Z,13064
2019-06-15T09:14:24.336Z,15296
2019-06-15T09:15:24.080Z,14220
2019-06-15T09:16:25.788Z,12472
2019-06-15T09:17:24.569Z,12792
2019-06-15T09:18:24.336Z,12048
2019-06-15T09:19:24.597Z,13176
2019-06-15T09:20:24.456Z,10844
2019-06-15T09:21:24.447Z,10248
2019-06-15T09:22:24.617Z,10492
2019-06-15T09:23:24.479Z,14524
2019-06-15T09:24:24.348Z,14384
2019-06-15T09:25:24.673Z,14460
2019-06-15T09:26:24.650Z,13232
2019-06-15T09:27:24.418Z,14840
2019-06-15T09:28:24.409Z,11476
2019-06-15T09:29:24.406Z,14236
2019-06-15T09:30:23.970Z,13620
2019-06-15T09:31:24.425Z,13480
2019-06-15T09:32:24.474Z,13180
2019-06-15T09:33:24.473Z,13144
2019-06-15T09:34:26.497Z,13504
2019-06-15T09:35:24.193Z,13572
2019-06-15T09:36:24.455Z,13236
2019-06-15T09:37:23.973Z,13476
2019-06-15T09:38:23.943Z,13744
2019-06-15T09:39:24.706Z,13248
2019-06-15T09:40:23.951Z,14000
2019-06-15T09:41:24.498Z,14212
2019-06-15T09:42:24.263Z,14136
2019-06-15T09:43:24.497Z,14812
2019-06-15T09:44:24.237Z,11028
2019-06-15T09:45:24.020Z,15420
2019-06-15T09:46:24.001Z,15532
2019-06-15T09:47:24.486Z,14680
2019-06-15T09:48:24.339Z,12468
2019-06-15T09:49:24.511Z,16800
2019-06-15T09:50:24.749Z,17376
2019-06-15T09:51:24.530Z,14284
2019-06-15T09:52:24.293Z,16160
2019-06-15T09:53:24.028Z,15808
2019-06-15T09:54:27.339Z,10868
2019-06-15T09:55:24.571Z,10484
2019-06-15T09:56:24.060Z,11064
2019-06-15T09:57:24.806Z,12652
2019-06-15T09:58:24.294Z,16384
2019-06-15T09:59:32.903Z,12728
2019-06-15T10:00:24.898Z,11644
2019-06-15T10:01:24.564Z,11260
2019-06-15T10:02:24.843Z,11912
2019-06-15T10:03:24.087Z,12048
2019-06-15T10:04:24.907Z,12840
2019-06-15T10:05:24.843Z,13040
2019-06-15T10:06:24.848Z,13516
2019-06-15T10:07:24.620Z,14976
2019-06-15T10:08:24.629Z,15292
2019-06-15T10:09:24.868Z,13572
2019-06-15T10:10:24.388Z,13460
2019-06-15T10:11:24.879Z,13328
2019-06-15T10:12:24.882Z,12016
2019-06-15T10:13:24.423Z,12060
2019-06-15T10:14:24.704Z,11988
2019-06-15T10:15:24.974Z,12500
2019-06-15T10:16:24.647Z,13852
2019-06-15T10:17:24.690Z,14232
2019-06-15T10:18:24.419Z,15012
2019-06-15T10:19:24.648Z,15612
2019-06-15T10:20:24.712Z,16064
2019-06-15T10:21:24.931Z,15668
2019-06-15T10:22:24.694Z,14436
2019-06-15T10:23:24.441Z,13588
2019-06-15T10:24:24.943Z,13228
2019-06-15T10:25:24.601Z,13092
2019-06-15T10:26:24.468Z,12280
2019-06-15T10:27:24.697Z,11888
2019-06-15T10:28:24.457Z,11508
2019-06-15T10:29:24.995Z,10864
2019-06-15T10:30:24.826Z,10272
2019-06-15T10:31:24.814Z,10000
2019-06-15T10:32:25.023Z,10172
2019-06-15T10:33:24.738Z,10136
2019-06-15T10:34:24.784Z,10276
2019-06-15T10:35:24.850Z,10324
2019-06-15T10:36:24.253Z,10512
2019-06-15T10:37:24.810Z,10536
2019-06-15T10:38:24.261Z,10328
2019-06-15T10:39:24.768Z,10328
2019-06-15T10:40:24.781Z,10288
2019-06-15T10:41:24.782Z,10988
2019-06-15T10:42:27.766Z,9504
2019-06-15T10:43:24.329Z,9436
2019-06-15T10:44:24.577Z,10572
2019-06-15T10:45:24.868Z,12056
2019-06-15T10:46:24.555Z,13736
2019-06-15T10:47:24.583Z,14364
2019-06-15T10:48:24.882Z,13384
2019-06-15T10:49:25.156Z,13616
2019-06-15T10:50:24.876Z,13588
2019-06-15T10:51:24.617Z,13484
2019-06-15T10:52:24.603Z,13108
2019-06-15T10:53:24.590Z,12844
2019-06-15T10:54:25.090Z,12620
2019-06-15T10:55:26.804Z,12752
2019-06-15T10:56:25.111Z,14476
2019-06-15T10:57:25.094Z,13712
2019-06-15T10:58:24.638Z,16160
2019-06-15T10:59:25.117Z,16576
2019-06-15T11:00:25.209Z,16864
2019-06-15T11:01:25.157Z,16544
2019-06-15T11:02:24.968Z,13512
2019-06-15T11:03:25.174Z,12760
2019-06-15T11:04:25.172Z,12188
2019-06-15T11:05:24.929Z,11732
2019-06-15T11:06:24.408Z,11328
2019-06-15T11:07:24.922Z,11428
2019-06-15T11:08:25.159Z,11256
2019-06-15T11:09:24.931Z,10640
2019-06-15T11:10:25.220Z,10088
2019-06-15T11:11:28.249Z,10168
2019-06-15T11:12:24.943Z,10028
2019-06-15T11:13:25.179Z,9980
2019-06-15T11:14:25.212Z,10460
2019-06-15T11:15:25.236Z,11816
2019-06-15T11:16:25.201Z,12624
2019-06-15T11:17:25.046Z,11968
2019-06-15T11:18:24.963Z,11968
2019-06-15T11:19:24.781Z,13592
2019-06-15T11:20:25.000Z,14132
2019-06-15T11:21:24.979Z,13428
2019-06-15T11:22:25.243Z,13828
2019-06-15T11:23:25.006Z,13844
2019-06-15T11:24:25.027Z,13000
2019-06-15T11:25:25.111Z,12908
2019-06-15T11:26:24.747Z,12272
2019-06-15T11:27:25.000Z,11412
2019-06-15T11:28:25.305Z,10236
2019-06-15T11:29:25.294Z,10380
2019-06-15T11:30:25.287Z,11404
2019-06-15T11:31:25.057Z,12240
2019-06-15T11:32:25.296Z,12988
2019-06-15T11:33:25.053Z,13308
2019-06-15T11:34:25.051Z,13156
2019-06-15T11:35:25.153Z,12880
2019-06-15T11:36:25.081Z,11972
2019-06-15T11:37:25.334Z,11984
2019-06-15T11:38:25.315Z,12772
2019-06-15T11:39:24.906Z,10960
2019-06-15T11:40:25.357Z,10252
2019-06-15T11:41:24.842Z,10068
2019-06-15T11:42:25.116Z,9924
2019-06-15T11:43:24.846Z,9844
2019-06-15T11:44:25.145Z,9872
2019-06-15T11:45:25.116Z,9648
2019-06-15T11:46:25.427Z,9004
2019-06-15T11:47:25.372Z,8636
2019-06-15T11:48:25.142Z,10436
2019-06-15T11:49:24.887Z,10792
2019-06-15T11:50:25.445Z,10040
2019-06-15T11:51:25.121Z,10160
2019-06-15T11:52:25.188Z,10500
2019-06-15T11:53:25.137Z,10504
2019-06-15T11:54:24.940Z,11160
2019-06-15T11:55:41.403Z,12300
2019-06-15T11:56:25.235Z,12008
2019-06-15T11:57:25.231Z,10788
2019-06-15T11:58:24.898Z,11048
2019-06-15T11:59:24.957Z,11624
2019-06-15T12:00:38.262Z,9552
2019-06-15T12:01:26.018Z,10324
2019-06-15T12:02:25.435Z,10808
2019-06-15T12:03:25.201Z,11448
2019-06-15T12:04:25.557Z,11336
2019-06-15T12:05:25.588Z,9768
2019-06-15T12:06:24.952Z,8868
2019-06-15T12:07:25.490Z,8412
2019-06-15T12:08:25.453Z,10200
2019-06-15T12:09:25.495Z,10104
2019-06-15T12:10:25.485Z,9628
2019-06-15T12:11:25.477Z,10248
2019-06-15T12:12:25.502Z,10268
2019-06-15T12:13:25.492Z,10248
2019-06-15T12:14:24.980Z,9736
2019-06-15T12:15:25.265Z,10152
2019-06-15T12:16:25.301Z,10136
2019-06-15T12:17:25.240Z,10292
2019-06-15T12:18:25.520Z,10344
2019-06-15T12:19:25.274Z,10328
2019-06-15T12:20:25.299Z,10168
2019-06-15T12:21:25.532Z,10152
2019-06-15T12:22:25.455Z,10184
2019-06-15T12:23:25.322Z,9620
2019-06-15T12:24:25.753Z,10484
2019-06-15T12:25:25.310Z,9860
2019-06-15T12:26:25.281Z,9788
2019-06-15T12:27:25.553Z,11136
2019-06-15T12:28:25.324Z,11024
2019-06-15T12:29:25.540Z,10232
2019-06-15T12:30:25.606Z,10376
2019-06-15T12:31:25.563Z,11364
2019-06-15T12:32:25.304Z,10360
2019-06-15T12:33:25.318Z,11504
2019-06-15T12:34:27.807Z,11588
2019-06-15T12:35:25.430Z,11092
2019-06-15T12:36:26.642Z,10300
2019-06-15T12:37:25.140Z,9840
2019-06-15T12:38:25.354Z,8680
2019-06-15T12:39:25.595Z,8544
2019-06-15T12:40:25.168Z,8480
2019-06-15T12:41:25.398Z,8356
2019-06-15T12:42:25.437Z,6884
2019-06-15T12:43:25.614Z,7352
2019-06-15T12:44:25.389Z,6536
2019-06-15T12:45:25.627Z,7296
2019-06-15T12:46:25.636Z,7396
2019-06-15T12:47:25.166Z,7908
2019-06-15T12:48:25.417Z,7808
2019-06-15T12:49:25.633Z,7252
2019-06-15T12:50:25.412Z,7500
2019-06-15T12:51:25.393Z,7484
2019-06-15T12:52:25.651Z,7644
2019-06-15T12:53:25.430Z,7640
2019-06-15T12:54:25.684Z,7564
2019-06-15T12:55:25.234Z,7436
2019-06-15T12:56:26.470Z,7420
2019-06-15T12:57:25.753Z,7480
2019-06-15T12:58:25.824Z,7476
2019-06-15T12:59:25.690Z,7384
2019-06-15T13:00:25.470Z,7400
2019-06-15T13:01:25.750Z,7436
2019-06-15T13:02:25.715Z,7300
2019-06-15T13:03:25.704Z,6924
2019-06-15T13:04:25.275Z,7640
2019-06-15T13:05:25.286Z,7672
2019-06-15T13:06:25.476Z,6540
2019-06-15T13:07:25.714Z,6740
2019-06-15T13:08:25.721Z,7508
2019-06-15T13:09:25.515Z,8128
2019-06-15T13:10:25.855Z,7680
2019-06-15T13:11:25.763Z,7768
2019-06-15T13:12:25.513Z,7916
2019-06-15T13:13:25.759Z,7156
2019-06-15T13:14:25.504Z,7980
2019-06-15T13:15:25.866Z,8124
2019-06-15T13:16:41.013Z,8420
2019-06-15T13:17:25.517Z,8468
2019-06-15T13:18:25.790Z,8600
2019-06-15T13:19:25.286Z,8656
2019-06-15T13:20:25.301Z,8760
2019-06-15T13:21:25.532Z,8812
2019-06-15T13:22:25.833Z,8848
2019-06-15T13:23:25.832Z,8904
2019-06-15T13:24:25.344Z,8892
2019-06-15T13:25:25.593Z,8972
2019-06-15T13:26:26.143Z,9092